Astoria, Illinois
Current Conditions -  °F | °C
As of 2:55 PM on Thursday 27 Nov 2014 (Local Time) from KMQB Reporting Station
Clear Clear  
Wind Chill:   Ceiling: Unl
Heat Index: 19°   Visibility: 10mi
Dew Point: 10°   Wind: 12mph
Humidity: 68%   Direction: 310°NW
Pressure: 30.48"   Gusts: NA
Location:  40.23°N, 90.36°W
Report Text: KMQB 272055Z AUTO 31010KT 10SM CLR M07/M12 A3048 RMK AO2 T10701121
Loading
Personal Weather Stations






























Interactive Weather Map New forecast layout! Learn more

10-Day Weather Forecast

Advertisements
Track Severe Weather on mobile